sensor_id;sensor_type;location;lat;lon;timestamp;pressure;altitude;pressure_sealevel;temperature;humidity
55538;BME280;41383;51.418;7.286;2022-08-19T00:02:03;99625.09;;;19.48;75.75
55538;BME280;41383;51.418;7.286;2022-08-19T00:04:32;99615.47;;;19.46;75.62
55538;BME280;41383;51.418;7.286;2022-08-19T00:06:59;99615.50;;;19.37;76.04
55538;BME280;41383;51.418;7.286;2022-08-19T00:09:26;99623.44;;;19.39;75.63
55538;BME280;41383;51.418;7.286;2022-08-19T00:11:53;99619.06;;;19.38;75.91
55538;BME280;41383;51.418;7.286;2022-08-19T00:14:20;99613.88;;;19.36;76.20
55538;BME280;41383;51.418;7.286;2022-08-19T00:16:46;99617.28;;;19.33;75.78
55538;BME280;41383;51.418;7.286;2022-08-19T00:19:14;99618.59;;;19.27;76.17
55538;BME280;41383;51.418;7.286;2022-08-19T00:21:39;99622.50;;;19.17;76.95
55538;BME280;41383;51.418;7.286;2022-08-19T00:24:09;99617.13;;;19.20;76.41
55538;BME280;41383;51.418;7.286;2022-08-19T00:26:35;99618.94;;;19.25;76.61
55538;BME280;41383;51.418;7.286;2022-08-19T00:29:01;99631.78;;;19.30;76.37
55538;BME280;41383;51.418;7.286;2022-08-19T00:31:27;99621.22;;;19.23;76.30
55538;BME280;41383;51.418;7.286;2022-08-19T00:33:53;99626.59;;;19.19;76.77
55538;BME280;41383;51.418;7.286;2022-08-19T00:36:19;99624.16;;;19.18;76.92
55538;BME280;41383;51.418;7.286;2022-08-19T00:38:44;99619.75;;;19.17;76.48
55538;BME280;41383;51.418;7.286;2022-08-19T00:41:13;99623.44;;;19.12;76.50
55538;BME280;41383;51.418;7.286;2022-08-19T00:43:40;99615.16;;;19.12;76.66
55538;BME280;41383;51.418;7.286;2022-08-19T00:46:06;99623.16;;;19.13;76.57
55538;BME280;41383;51.418;7.286;2022-08-19T00:48:33;99616.97;;;19.08;76.97
55538;BME280;41383;51.418;7.286;2022-08-19T00:50:59;99619.25;;;19.06;76.96
55538;BME280;41383;51.418;7.286;2022-08-19T00:53:27;99618.78;;;19.04;77.10
55538;BME280;41383;51.418;7.286;2022-08-19T00:55:55;99611.75;;;19.06;77.02
55538;BME280;41383;51.418;7.286;2022-08-19T00:58:24;99613.88;;;19.00;77.27
55538;BME280;41383;51.418;7.286;2022-08-19T01:00:52;99607.88;;;18.98;77.23
55538;BME280;41383;51.418;7.286;2022-08-19T01:03:19;99607.06;;;18.89;77.83
55538;BME280;41383;51.418;7.286;2022-08-19T01:05:46;99602.38;;;18.89;77.68
55538;BME280;41383;51.418;7.286;2022-08-19T01:08:14;99601.72;;;18.93;77.87
55538;BME280;41383;51.418;7.286;2022-08-19T01:10:44;99607.22;;;18.93;77.90
55538;BME280;41383;51.418;7.286;2022-08-19T01:13:14;99602.53;;;18.93;78.06
55538;BME280;41383;51.418;7.286;2022-08-19T01:15:43;99606.72;;;18.82;78.07
55538;BME280;41383;51.418;7.286;2022-08-19T01:18:12;99604.47;;;18.84;77.96
55538;BME280;41383;51.418;7.286;2022-08-19T01:20:40;99610.47;;;18.86;77.70
55538;BME280;41383;51.418;7.286;2022-08-19T01:23:06;99614.22;;;18.81;77.68
55538;BME280;41383;51.418;7.286;2022-08-19T01:25:40;99609.34;;;18.87;77.65
55538;BME280;41383;51.418;7.286;2022-08-19T01:28:06;99623.97;;;18.78;78.35
55538;BME280;41383;51.418;7.286;2022-08-19T01:30:34;99606.72;;;18.82;77.96
55538;BME280;41383;51.418;7.286;2022-08-19T01:33:01;99609.97;;;18.84;78.03
55538;BME280;41383;51.418;7.286;2022-08-19T01:35:29;99599.59;;;18.81;78.26
55538;BME280;41383;51.418;7.286;2022-08-19T01:38:06;99596.19;;;18.84;78.35
55538;BME280;41383;51.418;7.286;2022-08-19T01:40:35;99591.66;;;18.79;78.77
55538;BME280;41383;51.418;7.286;2022-08-19T01:43:02;99593.59;;;18.78;78.78
55538;BME280;41383;51.418;7.286;2022-08-19T01:45:30;99598.78;;;18.80;78.79
55538;BME280;41383;51.418;7.286;2022-08-19T01:47:57;99594.56;;;18.83;78.30
55538;BME280;41383;51.418;7.286;2022-08-19T01:50:23;99593.41;;;18.84;78.63
55538;BME280;41383;51.418;7.286;2022-08-19T01:52:49;99599.09;;;18.78;78.41
55538;BME280;41383;51.418;7.286;2022-08-19T01:55:18;99599.75;;;18.75;78.77
55538;BME280;41383;51.418;7.286;2022-08-19T01:57:48;99615.19;;;18.76;79.19
55538;BME280;41383;51.418;7.286;2022-08-19T02:00:17;99599.75;;;18.75;78.83
55538;BME280;41383;51.418;7.286;2022-08-19T02:02:43;99596.81;;;18.72;78.76
55538;BME280;41383;51.418;7.286;2022-08-19T02:05:10;99591.31;;;18.63;78.68
55538;BME280;41383;51.418;7.286;2022-08-19T02:07:36;99596.84;;;18.63;78.22
55538;BME280;41383;51.418;7.286;2022-08-19T02:10:08;99593.25;;;18.62;78.47
55538;BME280;41383;51.418;7.286;2022-08-19T02:12:34;99596.00;;;18.53;79.36
55538;BME280;41383;51.418;7.286;2022-08-19T02:15:00;99590.47;;;18.53;79.36
55538;BME280;41383;51.418;7.286;2022-08-19T02:17:28;99584.31;;;18.57;78.97
55538;BME280;41383;51.418;7.286;2022-08-19T02:19:54;99578.16;;;18.60;78.77
55538;BME280;41383;51.418;7.286;2022-08-19T02:22:20;99581.09;;;18.54;78.75
55538;BME280;41383;51.418;7.286;2022-08-19T02:24:46;99589.50;;;18.49;79.29
55538;BME280;41383;51.418;7.286;2022-08-19T02:27:13;99586.41;;;18.42;79.66
55538;BME280;41383;51.418;7.286;2022-08-19T02:29:38;99593.22;;;18.36;79.87
55538;BME280;41383;51.418;7.286;2022-08-19T02:32:04;99590.78;;;18.43;79.83
55538;BME280;41383;51.418;7.286;2022-08-19T02:34:29;99592.25;;;18.31;79.96
55538;BME280;41383;51.418;7.286;2022-08-19T02:36:54;99595.31;;;18.39;79.56
55538;BME280;41383;51.418;7.286;2022-08-19T02:39:20;99590.97;;;18.47;79.41
55538;BME280;41383;51.418;7.286;2022-08-19T02:41:45;99594.72;;;18.51;79.62
55538;BME280;41383;51.418;7.286;2022-08-19T02:44:10;99596.50;;;18.55;79.35
55538;BME280;41383;51.418;7.286;2022-08-19T02:46:36;99592.25;;;18.49;79.73
55538;BME280;41383;51.418;7.286;2022-08-19T02:49:07;99586.91;;;18.44;79.46
55538;BME280;41383;51.418;7.286;2022-08-19T02:51:35;99594.53;;;18.47;79.94
55538;BME280;41383;51.418;7.286;2022-08-19T02:54:02;99597.13;;;18.61;80.49
55538;BME280;41383;51.418;7.286;2022-08-19T02:56:28;99592.78;;;18.69;79.22
55538;BME280;41383;51.418;7.286;2022-08-19T02:58:54;99592.09;;;18.63;79.28
55538;BME280;41383;51.418;7.286;2022-08-19T03:03:46;99586.91;;;18.62;79.09
55538;BME280;41383;51.418;7.286;2022-08-19T03:06:14;99596.34;;;18.61;79.22
55538;BME280;41383;51.418;7.286;2022-08-19T03:08:42;99600.06;;;18.56;79.35
55538;BME280;41383;51.418;7.286;2022-08-19T03:11:20;99602.19;;;18.50;80.05
55538;BME280;41383;51.418;7.286;2022-08-19T03:13:46;99611.94;;;18.57;79.78
55538;BME280;41383;51.418;7.286;2022-08-19T03:16:14;99606.25;;;18.62;80.00
55538;BME280;41383;51.418;7.286;2022-08-19T03:18:39;99606.56;;;18.60;79.52
55538;BME280;41383;51.418;7.286;2022-08-19T03:21:05;99603.31;;;18.58;79.44
55538;BME280;41383;51.418;7.286;2022-08-19T03:23:31;99596.50;;;18.47;79.90
55538;BME280;41383;51.418;7.286;2022-08-19T03:25:56;99596.16;;;18.39;80.53
55538;BME280;41383;51.418;7.286;2022-08-19T03:28:22;99595.03;;;18.40;80.43
55538;BME280;41383;51.418;7.286;2022-08-19T03:30:59;99595.84;;;18.50;80.14
55538;BME280;41383;51.418;7.286;2022-08-19T03:33:26;99596.50;;;18.47;79.78
55538;BME280;41383;51.418;7.286;2022-08-19T03:36:10;99592.25;;;18.40;80.01
55538;BME280;41383;51.418;7.286;2022-08-19T03:38:39;99597.28;;;18.38;80.20
55538;BME280;41383;51.418;7.286;2022-08-19T03:41:07;99587.88;;;18.30;80.56
55538;BME280;41383;51.418;7.286;2022-08-19T03:43:37;99595.16;;;18.26;80.79
55538;BME280;41383;51.418;7.286;2022-08-19T03:46:11;99603.78;;;18.34;80.69
55538;BME280;41383;51.418;7.286;2022-08-19T03:48:38;99605.38;;;18.26;80.65
55538;BME280;41383;51.418;7.286;2022-08-19T03:51:05;99590.59;;;18.22;81.10
55538;BME280;41383;51.418;7.286;2022-08-19T03:53:32;99598.56;;;18.23;80.78
55538;BME280;41383;51.418;7.286;2022-08-19T03:55:58;99602.63;;;18.26;81.40
55538;BME280;41383;51.418;7.286;2022-08-19T03:58:28;99594.00;;;18.27;81.18
55538;BME280;41383;51.418;7.286;2022-08-19T04:00:55;99609.63;;;18.41;80.93
55538;BME280;41383;51.418;7.286;2022-08-19T04:03:21;99612.88;;;18.34;80.62
55538;BME280;41383;51.418;7.286;2022-08-19T04:05:46;99610.06;;;18.25;81.29
55538;BME280;41383;51.418;7.286;2022-08-19T04:08:13;99607.31;;;18.25;81.03
55538;BME280;41383;51.418;7.286;2022-08-19T04:10:44;99603.25;;;18.23;80.88
55538;BME280;41383;51.418;7.286;2022-08-19T04:13:09;99601.75;;;18.16;81.03
55538;BME280;41383;51.418;7.286;2022-08-19T04:15:40;99611.13;;;18.06;81.51
55538;BME280;41383;51.418;7.286;2022-08-19T04:18:07;99612.28;;;18.05;81.66
55538;BME280;41383;51.418;7.286;2022-08-19T04:20:43;99610.84;;;18.17;81.44
55538;BME280;41383;51.418;7.286;2022-08-19T04:23:10;99613.41;;;18.13;81.56
55538;BME280;41383;51.418;7.286;2022-08-19T04:25:37;99617.00;;;18.14;81.79
55538;BME280;41383;51.418;7.286;2022-08-19T04:28:03;99603.91;;;18.19;81.62
55538;BME280;41383;51.418;7.286;2022-08-19T04:30:28;99607.97;;;18.22;81.26
55538;BME280;41383;51.418;7.286;2022-08-19T04:32:53;99618.06;;;18.36;81.27
55538;BME280;41383;51.418;7.286;2022-08-19T04:35:19;99618.75;;;18.50;80.93
55538;BME280;41383;51.418;7.286;2022-08-19T04:37:44;99620.69;;;18.59;81.59
55538;BME280;41383;51.418;7.286;2022-08-19T04:40:09;99631.94;;;18.71;80.73
55538;BME280;41383;51.418;7.286;2022-08-19T04:42:54;99626.53;;;18.84;80.22
55538;BME280;41383;51.418;7.286;2022-08-19T04:45:19;99631.75;;;18.94;80.22
55538;BME280;41383;51.418;7.286;2022-08-19T04:47:45;99629.16;;;18.98;80.04
55538;BME280;41383;51.418;7.286;2022-08-19T04:50:11;99630.63;;;19.04;79.52
55538;BME280;41383;51.418;7.286;2022-08-19T04:52:37;99631.91;;;18.98;80.10
55538;BME280;41383;51.418;7.286;2022-08-19T04:55:07;99630.16;;;18.93;80.56
55538;BME280;41383;51.418;7.286;2022-08-19T04:57:33;99629.16;;;18.89;80.59
55538;BME280;41383;51.418;7.286;2022-08-19T04:59:58;99641.19;;;18.93;80.73
55538;BME280;41383;51.418;7.286;2022-08-19T05:02:23;99639.41;;;18.97;80.83
55538;BME280;41383;51.418;7.286;2022-08-19T05:04:49;99636.81;;;19.01;80.64
55538;BME280;41383;51.418;7.286;2022-08-19T05:07:15;99634.84;;;19.01;80.62
55538;BME280;41383;51.418;7.286;2022-08-19T05:09:40;99645.41;;;18.99;80.50
55538;BME280;41383;51.418;7.286;2022-08-19T05:12:05;99645.72;;;19.07;80.22
55538;BME280;41383;51.418;7.286;2022-08-19T05:14:31;99649.16;;;19.21;79.73
55538;BME280;41383;51.418;7.286;2022-08-19T05:16:56;99653.69;;;19.35;78.90
55538;BME280;41383;51.418;7.286;2022-08-19T05:19:21;99646.38;;;19.39;78.42
55538;BME280;41383;51.418;7.286;2022-08-19T05:22:05;99647.84;;;19.45;78.18
55538;BME280;41383;51.418;7.286;2022-08-19T05:24:49;99652.53;;;19.54;77.67
55538;BME280;41383;51.418;7.286;2022-08-19T05:27:16;99652.69;;;19.57;77.46
55538;BME280;41383;51.418;7.286;2022-08-19T05:29:41;99650.75;;;19.58;77.41
55538;BME280;41383;51.418;7.286;2022-08-19T05:32:06;99643.25;;;19.58;77.42
55538;BME280;41383;51.418;7.286;2022-08-19T05:34:36;99650.06;;;19.61;77.32
55538;BME280;41383;51.418;7.286;2022-08-19T05:37:03;99643.25;;;19.58;77.58
55538;BME280;41383;51.418;7.286;2022-08-19T05:39:32;99638.38;;;19.64;77.08
55538;BME280;41383;51.418;7.286;2022-08-19T05:42:01;99637.53;;;19.73;77.08
55538;BME280;41383;51.418;7.286;2022-08-19T05:44:31;99642.88;;;19.78;76.96
55538;BME280;41383;51.418;7.286;2022-08-19T05:47:01;99643.19;;;19.85;76.83
55538;BME280;41383;51.418;7.286;2022-08-19T05:49:28;99647.72;;;19.90;76.86
55538;BME280;41383;51.418;7.286;2022-08-19T05:51:54;99650.31;;;19.95;76.45
55538;BME280;41383;51.418;7.286;2022-08-19T05:54:21;99648.97;;;20.01;76.31
55538;BME280;41383;51.418;7.286;2022-08-19T05:56:49;99645.88;;;20.03;75.92
55538;BME280;41383;51.418;7.286;2022-08-19T05:59:15;99639.53;;;20.02;76.36
55538;BME280;41383;51.418;7.286;2022-08-19T06:01:44;99647.38;;;19.91;76.56
55538;BME280;41383;51.418;7.286;2022-08-19T06:04:10;99642.84;;;19.87;77.11
55538;BME280;41383;51.418;7.286;2022-08-19T06:06:35;99644.44;;;19.97;76.72
55538;BME280;41383;51.418;7.286;2022-08-19T06:09:06;99649.44;;;20.12;76.22
55538;BME280;41383;51.418;7.286;2022-08-19T06:11:33;99646.50;;;20.17;75.67
55538;BME280;41383;51.418;7.286;2022-08-19T06:14:08;99653.47;;;20.24;75.70
55538;BME280;41383;51.418;7.286;2022-08-19T06:16:35;99650.16;;;20.30;75.26
55538;BME280;41383;51.418;7.286;2022-08-19T06:19:05;99651.63;;;20.28;75.74
55538;BME280;41383;51.418;7.286;2022-08-19T06:21:32;99653.63;;;20.18;75.93
55538;BME280;41383;51.418;7.286;2022-08-19T06:23:59;99649.75;;;20.20;76.38
55538;BME280;41383;51.418;7.286;2022-08-19T06:26:24;99642.28;;;20.11;76.26
55538;BME280;41383;51.418;7.286;2022-08-19T06:28:51;99637.03;;;20.18;75.97
55538;BME280;41383;51.418;7.286;2022-08-19T06:31:19;99641.81;;;20.09;76.15
55538;BME280;41383;51.418;7.286;2022-08-19T06:33:46;99641.47;;;20.02;76.40
55538;BME280;41383;51.418;7.286;2022-08-19T06:36:26;99643.09;;;20.12;76.61
55538;BME280;41383;51.418;7.286;2022-08-19T06:38:55;99638.94;;;20.27;75.38
55538;BME280;41383;51.418;7.286;2022-08-19T06:41:22;99638.53;;;20.07;76.07
55538;BME280;41383;51.418;7.286;2022-08-19T06:43:47;99651.56;;;19.98;76.42
55538;BME280;41383;51.418;7.286;2022-08-19T06:46:15;99648.88;;;19.89;77.14
55538;BME280;41383;51.418;7.286;2022-08-19T06:48:41;99651.28;;;19.99;76.76
55538;BME280;41383;51.418;7.286;2022-08-19T06:51:06;99652.59;;;19.93;77.17
55538;BME280;41383;51.418;7.286;2022-08-19T06:53:32;99648.53;;;19.90;77.26
55538;BME280;41383;51.418;7.286;2022-08-19T06:55:58;99655.09;;;19.77;77.62
55538;BME280;41383;51.418;7.286;2022-08-19T06:58:28;99658.44;;;19.91;77.65
55538;BME280;41383;51.418;7.286;2022-08-19T07:01:01;99656.44;;;20.10;76.68
55538;BME280;41383;51.418;7.286;2022-08-19T07:03:30;99650.16;;;20.30;76.20
55538;BME280;41383;51.418;7.286;2022-08-19T07:05:56;99657.25;;;20.40;75.78
55538;BME280;41383;51.418;7.286;2022-08-19T07:08:21;99656.88;;;20.51;76.05
55538;BME280;41383;51.418;7.286;2022-08-19T07:10:46;99660.59;;;20.55;75.57
55538;BME280;41383;51.418;7.286;2022-08-19T07:13:13;99657.84;;;20.55;75.80
55538;BME280;41383;51.418;7.286;2022-08-19T07:15:38;99656.69;;;20.56;75.61
55538;BME280;41383;51.418;7.286;2022-08-19T07:18:04;99656.03;;;20.59;75.40
55538;BME280;41383;51.418;7.286;2022-08-19T07:20:30;99662.38;;;20.60;75.86
55538;BME280;41383;51.418;7.286;2022-08-19T07:22:55;99662.16;;;20.44;76.39
55538;BME280;41383;51.418;7.286;2022-08-19T07:25:20;99667.00;;;20.47;76.31
55538;BME280;41383;51.418;7.286;2022-08-19T07:27:48;99669.94;;;20.72;75.67
55538;BME280;41383;51.418;7.286;2022-08-19T07:30:14;99668.72;;;20.60;76.16
55538;BME280;41383;51.418;7.286;2022-08-19T07:32:40;99676.16;;;20.69;75.92
55538;BME280;41383;51.418;7.286;2022-08-19T07:35:06;99677.97;;;20.64;76.47
55538;BME280;41383;51.418;7.286;2022-08-19T07:37:31;99682.19;;;20.40;76.96
55538;BME280;41383;51.418;7.286;2022-08-19T07:39:57;99685.81;;;20.62;76.80
55538;BME280;41383;51.418;7.286;2022-08-19T07:42:22;99683.97;;;20.67;76.58
55538;BME280;41383;51.418;7.286;2022-08-19T07:44:47;99684.94;;;20.71;76.54
55538;BME280;41383;51.418;7.286;2022-08-19T07:47:13;99684.41;;;20.77;76.20
55538;BME280;41383;51.418;7.286;2022-08-19T07:49:40;99683.16;;;20.96;75.76
55538;BME280;41383;51.418;7.286;2022-08-19T07:52:08;99694.66;;;20.77;75.61
55538;BME280;41383;51.418;7.286;2022-08-19T07:54:37;99697.13;;;20.79;75.55
55538;BME280;41383;51.418;7.286;2022-08-19T07:57:03;99698.13;;;20.95;75.43
55538;BME280;41383;51.418;7.286;2022-08-19T07:59:29;99700.06;;;21.04;74.64
55538;BME280;41383;51.418;7.286;2022-08-19T08:01:55;99703.66;;;21.04;74.97
55538;BME280;41383;51.418;7.286;2022-08-19T08:04:20;99710.31;;;21.03;74.47
55538;BME280;41383;51.418;7.286;2022-08-19T08:07:06;99716.25;;;20.93;74.83
55538;BME280;41383;51.418;7.286;2022-08-19T08:09:50;99720.97;;;21.01;74.34
55538;BME280;41383;51.418;7.286;2022-08-19T08:12:22;99722.81;;;20.88;75.03
55538;BME280;41383;51.418;7.286;2022-08-19T08:14:52;99727.28;;;21.02;74.65
55538;BME280;41383;51.418;7.286;2022-08-19T08:17:22;99729.72;;;21.03;74.57
55538;BME280;41383;51.418;7.286;2022-08-19T08:19:48;99723.72;;;21.01;74.72
55538;BME280;41383;51.418;7.286;2022-08-19T08:22:17;99730.97;;;21.15;74.65
55538;BME280;41383;51.418;7.286;2022-08-19T08:25:10;99730.69;;;21.29;73.86
55538;BME280;41383;51.418;7.286;2022-08-19T08:27:38;99731.84;;;21.06;74.89
55538;BME280;41383;51.418;7.286;2022-08-19T08:30:06;99736.63;;;21.18;74.46
55538;BME280;41383;51.418;7.286;2022-08-19T08:32:36;99728.38;;;21.31;74.43
55538;BME280;41383;51.418;7.286;2022-08-19T08:35:03;99733.47;;;21.63;73.05
55538;BME280;41383;51.418;7.286;2022-08-19T08:37:29;99724.31;;;21.50;73.56
55538;BME280;41383;51.418;7.286;2022-08-19T08:39:55;99729.22;;;21.44;74.05
55538;BME280;41383;51.418;7.286;2022-08-19T08:42:31;99733.19;;;21.77;72.94
55538;BME280;41383;51.418;7.286;2022-08-19T08:45:10;99723.56;;;21.96;72.47
55538;BME280;41383;51.418;7.286;2022-08-19T08:47:41;99730.97;;;22.04;72.36
55538;BME280;41383;51.418;7.286;2022-08-19T08:50:13;99728.78;;;22.10;72.17
55538;BME280;41383;51.418;7.286;2022-08-19T08:52:47;99731.53;;;21.97;72.31
55538;BME280;41383;51.418;7.286;2022-08-19T08:55:16;99726.47;;;22.12;71.91
55538;BME280;41383;51.418;7.286;2022-08-19T09:00:31;99726.63;;;22.41;70.93
55538;BME280;41383;51.418;7.286;2022-08-19T09:02:58;99728.09;;;22.38;70.03
55538;BME280;41383;51.418;7.286;2022-08-19T09:05:35;99718.41;;;22.57;70.24
55538;BME280;41383;51.418;7.286;2022-08-19T09:08:17;99723.25;;;22.60;69.33
55538;BME280;41383;51.418;7.286;2022-08-19T09:10:53;99718.06;;;22.71;69.45
55538;BME280;41383;51.418;7.286;2022-08-19T09:13:28;99723.25;;;22.85;67.51
55538;BME280;41383;51.418;7.286;2022-08-19T09:16:02;99725.81;;;22.90;67.18
55538;BME280;41383;51.418;7.286;2022-08-19T09:18:56;99712.78;;;23.07;66.52
55538;BME280;41383;51.418;7.286;2022-08-19T09:21:24;99727.09;;;23.21;65.28
55538;BME280;41383;51.418;7.286;2022-08-19T09:23:51;99717.63;;;23.23;65.59
55538;BME280;41383;51.418;7.286;2022-08-19T09:26:21;99720.41;;;23.23;63.76
55538;BME280;41383;51.418;7.286;2022-08-19T09:28:48;99727.16;;;23.50;63.77
55538;BME280;41383;51.418;7.286;2022-08-19T09:31:17;99719.72;;;23.54;62.88
55538;BME280;41383;51.418;7.286;2022-08-19T09:33:43;99715.88;;;23.59;63.30
55538;BME280;41383;51.418;7.286;2022-08-19T09:36:11;99711.09;;;23.60;62.80
55538;BME280;41383;51.418;7.286;2022-08-19T09:38:39;99711.81;;;23.57;63.67
55538;BME280;41383;51.418;7.286;2022-08-19T09:41:15;99714.06;;;23.51;63.39
55538;BME280;41383;51.418;7.286;2022-08-19T09:43:43;99710.66;;;23.58;63.91
55538;BME280;41383;51.418;7.286;2022-08-19T09:46:09;99716.88;;;23.67;64.07
55538;BME280;41383;51.418;7.286;2022-08-19T09:48:43;99708.59;;;23.54;63.29
55538;BME280;41383;51.418;7.286;2022-08-19T09:51:12;99710.31;;;23.59;62.87
55538;BME280;41383;51.418;7.286;2022-08-19T09:53:42;99707.59;;;23.34;63.77
55538;BME280;41383;51.418;7.286;2022-08-19T09:56:08;99705.13;;;23.16;64.75
55538;BME280;41383;51.418;7.286;2022-08-19T09:58:34;99712.72;;;23.32;64.87
55538;BME280;41383;51.418;7.286;2022-08-19T10:01:01;99715.16;;;23.21;64.21
55538;BME280;41383;51.418;7.286;2022-08-19T10:03:28;99720.16;;;23.15;63.12
55538;BME280;41383;51.418;7.286;2022-08-19T10:05:56;99712.34;;;23.33;62.94
55538;BME280;41383;51.418;7.286;2022-08-19T10:08:34;99714.47;;;23.65;62.25
55538;BME280;41383;51.418;7.286;2022-08-19T10:11:00;99712.56;;;23.70;61.17
55538;BME280;41383;51.418;7.286;2022-08-19T10:13:27;99709.63;;;23.78;60.34
55538;BME280;41383;51.418;7.286;2022-08-19T10:15:55;99708.75;;;23.90;60.14
55538;BME280;41383;51.418;7.286;2022-08-19T10:18:22;99711.16;;;24.08;59.20
55538;BME280;41383;51.418;7.286;2022-08-19T10:20:49;99711.91;;;24.05;59.53
55538;BME280;41383;51.418;7.286;2022-08-19T10:23:15;99711.03;;;24.33;59.46
55538;BME280;41383;51.418;7.286;2022-08-19T10:25:41;99702.59;;;24.30;57.69
55538;BME280;41383;51.418;7.286;2022-08-19T10:28:07;99708.59;;;24.48;57.16
55538;BME280;41383;51.418;7.286;2022-08-19T10:30:33;99705.25;;;24.58;57.37
55538;BME280;41383;51.418;7.286;2022-08-19T10:32:58;99705.81;;;24.48;57.10
55538;BME280;41383;51.418;7.286;2022-08-19T10:35:24;99706.50;;;24.12;57.30
55538;BME280;41383;51.418;7.286;2022-08-19T10:37:55;99707.84;;;24.19;57.48
55538;BME280;41383;51.418;7.286;2022-08-19T10:40:24;99701.50;;;24.34;57.00
55538;BME280;41383;51.418;7.286;2022-08-19T10:42:49;99702.28;;;24.51;57.08
55538;BME280;41383;51.418;7.286;2022-08-19T10:45:15;99706.41;;;24.57;55.88
55538;BME280;41383;51.418;7.286;2022-08-19T10:47:40;99705.84;;;24.68;55.58
55538;BME280;41383;51.418;7.286;2022-08-19T10:50:06;99706.03;;;24.75;54.75
55538;BME280;41383;51.418;7.286;2022-08-19T10:52:49;99701.88;;;24.85;53.27
55538;BME280;41383;51.418;7.286;2022-08-19T10:55:19;99692.69;;;24.84;53.79
55538;BME280;41383;51.418;7.286;2022-08-19T10:58:10;99692.34;;;25.06;53.85
55538;BME280;41383;51.418;7.286;2022-08-19T11:00:36;99696.34;;;24.89;53.56
55538;BME280;41383;51.418;7.286;2022-08-19T11:03:02;99690.41;;;24.90;54.03
55538;BME280;41383;51.418;7.286;2022-08-19T11:05:27;99702.06;;;24.76;53.55
55538;BME280;41383;51.418;7.286;2022-08-19T11:07:52;99696.81;;;24.91;53.04
55538;BME280;41383;51.418;7.286;2022-08-19T11:10:18;99699.78;;;25.18;53.63
55538;BME280;41383;51.418;7.286;2022-08-19T11:12:44;99694.03;;;25.30;52.78
55538;BME280;41383;51.418;7.286;2022-08-19T11:15:10;99698.94;;;25.57;52.44
55538;BME280;41383;51.418;7.286;2022-08-19T11:17:37;99697.72;;;25.55;52.25
55538;BME280;41383;51.418;7.286;2022-08-19T11:20:08;99696.13;;;25.34;51.90
55538;BME280;41383;51.418;7.286;2022-08-19T11:22:33;99694.03;;;25.30;51.92
55538;BME280;41383;51.418;7.286;2022-08-19T11:24:59;99690.38;;;25.46;52.49
55538;BME280;41383;51.418;7.286;2022-08-19T11:27:25;99684.75;;;25.66;51.78
55538;BME280;41383;51.418;7.286;2022-08-19T11:29:50;99688.59;;;25.58;51.92
55538;BME280;41383;51.418;7.286;2022-08-19T11:32:17;99688.66;;;25.61;51.63
55538;BME280;41383;51.418;7.286;2022-08-19T11:34:42;99684.47;;;25.71;50.96
55538;BME280;41383;51.418;7.286;2022-08-19T11:37:08;99685.50;;;25.63;50.57
55538;BME280;41383;51.418;7.286;2022-08-19T11:39:35;99682.94;;;25.54;50.17
55538;BME280;41383;51.418;7.286;2022-08-19T11:42:03;99682.25;;;25.61;50.62
55538;BME280;41383;51.418;7.286;2022-08-19T11:44:49;99681.97;;;25.66;50.99
55538;BME280;41383;51.418;7.286;2022-08-19T11:47:14;99674.16;;;25.95;50.28
55538;BME280;41383;51.418;7.286;2022-08-19T11:49:40;99679.78;;;25.99;49.73
55538;BME280;41383;51.418;7.286;2022-08-19T11:52:05;99678.84;;;26.15;49.31
55538;BME280;41383;51.418;7.286;2022-08-19T11:54:31;99676.81;;;26.11;48.31
55538;BME280;41383;51.418;7.286;2022-08-19T11:56:57;99674.94;;;26.19;48.22
55538;BME280;41383;51.418;7.286;2022-08-19T11:59:22;99675.03;;;26.27;46.86
55538;BME280;41383;51.418;7.286;2022-08-19T12:01:47;99671.50;;;26.30;47.71
55538;BME280;41383;51.418;7.286;2022-08-19T12:04:12;99669.78;;;26.21;46.56
55538;BME280;41383;51.418;7.286;2022-08-19T12:06:40;99672.50;;;26.41;47.00
55538;BME280;41383;51.418;7.286;2022-08-19T12:09:07;99672.38;;;26.61;47.22
55538;BME280;41383;51.418;7.286;2022-08-19T12:11:35;99661.97;;;26.34;47.87
55538;BME280;41383;51.418;7.286;2022-08-19T12:14:02;99666.09;;;26.41;47.63
55538;BME280;41383;51.418;7.286;2022-08-19T12:16:28;99669.97;;;26.60;47.02
55538;BME280;41383;51.418;7.286;2022-08-19T12:18:56;99662.34;;;26.33;47.61
55538;BME280;41383;51.418;7.286;2022-08-19T12:21:25;99661.97;;;26.34;47.14
55538;BME280;41383;51.418;7.286;2022-08-19T12:23:53;99654.53;;;26.42;47.63
55538;BME280;41383;51.418;7.286;2022-08-19T12:26:19;99658.53;;;26.68;46.42
55538;BME280;41383;51.418;7.286;2022-08-19T12:28:45;99667.13;;;26.56;46.68
55538;BME280;41383;51.418;7.286;2022-08-19T12:31:11;99668.72;;;26.57;45.68
55538;BME280;41383;51.418;7.286;2022-08-19T12:33:40;99673.56;;;26.60;45.27
55538;BME280;41383;51.418;7.286;2022-08-19T12:36:08;99667.13;;;26.56;45.57
55538;BME280;41383;51.418;7.286;2022-08-19T12:38:34;99664.75;;;26.58;45.78
55538;BME280;41383;51.418;7.286;2022-08-19T12:41:00;99661.81;;;26.78;45.66
55538;BME280;41383;51.418;7.286;2022-08-19T12:43:25;99656.84;;;26.64;44.98
55538;BME280;41383;51.418;7.286;2022-08-19T12:45:51;99655.47;;;26.81;44.75
55538;BME280;41383;51.418;7.286;2022-08-19T12:48:16;99659.59;;;26.60;45.43
55538;BME280;41383;51.418;7.286;2022-08-19T12:50:43;99665.09;;;26.29;45.50
55538;BME280;41383;51.418;7.286;2022-08-19T12:53:13;99664.50;;;26.40;44.99
55538;BME280;41383;51.418;7.286;2022-08-19T12:55:39;99658.28;;;26.27;45.12
55538;BME280;41383;51.418;7.286;2022-08-19T12:58:06;99664.63;;;26.00;45.91
55538;BME280;41383;51.418;7.286;2022-08-19T13:00:31;99653.59;;;26.34;44.43
55538;BME280;41383;51.418;7.286;2022-08-19T13:02:58;99647.66;;;26.36;43.55
55538;BME280;41383;51.418;7.286;2022-08-19T13:05:26;99642.41;;;26.58;43.63
55538;BME280;41383;51.418;7.286;2022-08-19T13:07:54;99637.09;;;26.80;44.06
55538;BME280;41383;51.418;7.286;2022-08-19T13:10:24;99641.75;;;26.68;44.07